Garden City, Kansas
Current Conditions -  °F | °C
As of 5:54 AM on Friday 31 Oct 2014 (Local Time) from KGCK Reporting Station
Clear Clear  
Wind Chill: -3°   Ceiling: Unl
Heat Index:   Visibility: 10mi
Dew Point: -1°   Wind: 7mph
Humidity: 89%   Direction: 20°NNE
Pressure: 30.45"   Gusts: NA
Location:  37.97°N, 100.87°W
Report Text: KGCK 311054Z AUTO 02006KT 10SM CLR 01/M01 A3045 RMK AO2 SLP311 T00061011
Loading
Personal Weather Stations






























Interactive Weather Map
Tropical Storm Tracking
New forecast layout! Learn more

10-Day Weather Forecast

Advertisements
Track Severe Weather on mobile